Time;durP1;ratioP1;P1;durP2;ratioP2;P2;SDS_P1;SDS_P2;PMS_P1;PMS_P2;Temp;Humidity;BMP_temperature;BMP_pressure;BME280_temperature;BME280_humidity;BME280_pressure;Samples;Min_cycle;Max_cycle;Signal;HPM_P1;HPM_P2
2023/02/20 00:00:01;;;;;;;4.45;2.60;;;11.40;87.90;;;;;;4999500;28;20018;-83
2023/02/20 00:02:27;;;;;;;4.53;2.50;;;11.40;88.40;;;;;;4996461;28;20024;-84
2023/02/20 00:04:52;;;;;;;4.40;2.40;;;11.40;87.90;;;;;;5000151;28;20124;-84
2023/02/20 00:07:17;;;;;;;4.75;2.67;;;11.40;87.90;;;;;;4997626;28;20026;-83
2023/02/20 00:09:43;;;;;;;4.82;2.40;;;11.40;87.90;;;;;;4995866;28;20065;-84
2023/02/20 00:12:08;;;;;;;4.35;2.50;;;11.40;87.90;;;;;;4999626;28;20053;-84
2023/02/20 00:14:34;;;;;;;4.57;2.67;;;11.40;87.90;;;;;;4999037;28;20037;-83
2023/02/20 00:17:00;;;;;;;5.43;2.50;;;11.40;87.90;;;;;;4998349;28;20048;-84
2023/02/20 00:19:25;;;;;;;4.20;2.25;;;11.40;87.90;;;;;;4998576;28;20527;-84
2023/02/20 00:21:51;;;;;;;4.32;2.33;;;11.40;88.40;;;;;;5016457;28;20026;-84
2023/02/20 00:24:18;;;;;;;4.40;2.33;;;11.40;87.90;;;;;;5016269;28;20392;-84
2023/02/20 00:26:51;;;;;;;4.55;2.50;;;11.40;87.90;;;;;;4998825;28;20018;-84
2023/02/20 00:29:21;;;;;;;4.10;2.30;;;11.40;87.90;;;;;;5016594;28;20025;-84
2023/02/20 00:31:52;;;;;;;4.38;2.50;;;11.40;87.90;;;;;;4998533;28;20112;-83
2023/02/20 00:34:18;;;;;;;4.30;2.30;;;11.40;87.90;;;;;;4996403;28;20022;-84
2023/02/20 00:36:44;;;;;;;4.72;2.60;;;11.40;87.90;;;;;;5011498;28;20060;-83
2023/02/20 00:39:09;;;;;;;4.20;2.50;;;11.40;87.90;;;;;;5012581;28;20371;-84
2023/02/20 00:41:35;;;;;;;4.32;2.45;;;11.40;88.00;;;;;;4995944;28;20030;-83
2023/02/20 00:44:00;;;;;;;4.35;2.40;;;11.40;88.00;;;;;;4995524;28;20030;-83
2023/02/20 00:46:26;;;;;;;3.63;2.00;;;11.40;87.90;;;;;;4997441;28;20033;-83
2023/02/20 00:48:51;;;;;;;4.40;2.42;;;11.40;88.00;;;;;;5015128;28;20030;-84
2023/02/20 00:51:16;;;;;;;4.78;2.58;;;11.40;88.00;;;;;;4996930;28;20026;-84
2023/02/20 00:53:42;;;;;;;4.15;2.22;;;11.30;87.90;;;;;;4995231;28;20053;-83
2023/02/20 00:56:07;;;;;;;5.20;2.50;;;11.40;87.90;;;;;;4998684;28;20029;-84
2023/02/20 00:58:33;;;;;;;4.80;2.50;;;11.40;88.50;;;;;;4999585;28;20119;-84
2023/02/20 01:00:58;;;;;;;4.75;2.58;;;11.40;87.90;;;;;;4999429;28;20498;-84
2023/02/20 01:03:24;;;;;;;4.15;2.45;;;11.40;88.00;;;;;;5001324;28;20021;-84
2023/02/20 01:05:49;;;;;;;4.13;2.40;;;11.40;87.90;;;;;;5000490;28;20028;-84
2023/02/20 01:08:15;;;;;;;4.97;2.63;;;11.40;88.00;;;;;;5018614;28;20375;-84
2023/02/20 01:10:40;;;;;;;4.07;2.30;;;11.40;88.00;;;;;;4999971;28;20034;-84
2023/02/20 01:13:06;;;;;;;4.68;2.80;;;11.40;88.00;;;;;;5017547;28;20080;-84
2023/02/20 01:15:31;;;;;;;4.57;2.63;;;11.40;88.00;;;;;;4993102;28;20034;-81
2023/02/20 01:17:57;;;;;;;4.63;2.58;;;11.40;88.10;;;;;;4984889;28;20069;-84
2023/02/20 01:20:23;;;;;;;4.38;2.38;;;11.40;88.10;;;;;;4959983;28;20102;-83
2023/02/20 01:22:49;;;;;;;4.32;2.60;;;11.30;88.00;;;;;;4977099;28;20031;-84
2023/02/20 01:25:14;;;;;;;4.13;2.40;;;11.40;88.10;;;;;;4960721;28;20022;-84
2023/02/20 01:27:40;;;;;;;4.90;2.80;;;11.40;88.10;;;;;;4978394;28;20034;-84
2023/02/20 01:30:07;;;;;;;4.28;2.53;;;11.40;88.10;;;;;;4977498;28;20089;-83
2023/02/20 01:32:32;;;;;;;4.78;2.92;;;11.40;88.00;;;;;;4960002;28;20035;-84
2023/02/20 01:34:58;;;;;;;5.03;2.90;;;11.40;88.10;;;;;;4959703;28;20041;-84
2023/02/20 01:37:23;;;;;;;4.75;2.85;;;11.40;88.10;;;;;;4959567;28;20019;-83
2023/02/20 01:39:49;;;;;;;4.25;2.53;;;11.30;88.00;;;;;;4959599;28;20121;-83
2023/02/20 01:42:21;;;;;;;4.38;2.50;;;11.30;88.00;;;;;;4959502;28;20056;-83
2023/02/20 01:44:47;;;;;;;4.80;2.70;;;11.40;88.10;;;;;;4959663;28;20118;-83
2023/02/20 01:47:16;;;;;;;4.57;2.55;;;11.30;88.10;;;;;;4959458;28;20066;-83
2023/02/20 01:49:47;;;;;;;4.78;2.83;;;11.40;88.20;;;;;;4976780;28;20202;-83
2023/02/20 01:52:31;;;;;;;5.47;3.00;;;11.40;88.20;;;;;;4959631;28;20544;-84
2023/02/20 01:55:19;;;;;;;4.68;2.75;;;11.40;88.20;;;;;;4962868;28;20638;-84
2023/02/20 01:57:51;;;;;;;4.28;2.67;;;11.40;88.20;;;;;;4966914;28;20114;-84
2023/02/20 02:00:20;;;;;;;4.97;2.83;;;11.40;88.20;;;;;;4969870;28;20077;-84
2023/02/20 02:02:54;;;;;;;4.97;2.80;;;11.40;88.20;;;;;;4970133;28;20126;-84
2023/02/20 02:05:20;;;;;;;4.57;2.72;;;11.40;88.10;;;;;;4969852;28;20031;-84
2023/02/20 02:07:46;;;;;;;4.90;2.83;;;11.40;88.10;;;;;;4969144;28;20030;-84
2023/02/20 02:10:15;;;;;;;5.15;3.13;;;11.30;88.10;;;;;;4968296;28;20094;-84
2023/02/20 02:12:46;;;;;;;4.57;2.63;;;11.30;88.10;;;;;;4967126;28;20031;-85
2023/02/20 02:15:14;;;;;;;5.40;2.90;;;11.40;88.10;;;;;;4984421;28;20038;-84
2023/02/20 02:17:58;;;;;;;4.93;2.88;;;11.30;88.10;;;;;;4968068;28;20034;-84
2023/02/20 02:20:56;;;;;;;4.82;2.88;;;11.30;88.10;;;;;;4986948;28;20031;-84
2023/02/20 02:23:41;;;;;;;5.35;3.08;;;11.30;88.10;;;;;;4985176;28;20042;-84
2023/02/20 02:26:34;;;;;;;4.82;3.00;;;11.30;88.10;;;;;;4977410;28;20027;-84
2023/02/20 02:29:32;;;;;;;4.82;2.75;;;11.30;88.10;;;;;;4977292;28;20541;-83
2023/02/20 02:32:45;;;;;;;5.38;3.13;;;11.30;88.10;;;;;;4962309;28;20037;-84
2023/02/20 02:35:42;;;;;;;5.28;2.90;;;11.30;88.10;;;;;;4964406;28;20034;-84
2023/02/20 02:38:34;;;;;;;4.80;2.83;;;11.40;88.10;;;;;;4964341;28;20170;-84
2023/02/20 02:41:14;;;;;;;5.03;3.05;;;11.40;88.10;;;;;;4964141;28;20856;-84
2023/02/20 02:44:03;;;;;;;5.20;3.20;;;11.40;88.10;;;;;;4963092;28;20640;-85
2023/02/20 02:46:40;;;;;;;4.85;2.80;;;11.40;88.20;;;;;;4967962;28;20023;-84
2023/02/20 02:49:18;;;;;;;4.55;2.80;;;11.40;88.20;;;;;;4968817;28;20094;-84
2023/02/20 02:51:46;;;;;;;5.25;2.92;;;11.40;88.10;;;;;;4967210;28;20117;-84
2023/02/20 02:54:21;;;;;;;4.63;2.78;;;11.40;88.20;;;;;;4965687;28;20031;-84
2023/02/20 02:56:47;;;;;;;5.10;2.95;;;11.30;88.20;;;;;;4982717;28;20023;-85
2023/02/20 02:59:27;;;;;;;5.53;3.22;;;11.30;88.20;;;;;;4983111;28;20030;-84
2023/02/20 03:02:00;;;;;;;5.30;3.05;;;11.30;88.20;;;;;;4967513;28;20518;-84
2023/02/20 03:04:29;;;;;;;5.07;2.97;;;11.30;88.70;;;;;;4965516;28;20054;-84
2023/02/20 03:06:59;;;;;;;5.45;3.45;;;11.40;88.30;;;;;;4963680;28;20026;-84
2023/02/20 03:09:29;;;;;;;4.93;2.80;;;11.30;88.30;;;;;;4962733;28;20124;-84
2023/02/20 03:11:58;;;;;;;5.60;3.15;;;11.30;88.30;;;;;;4962846;28;20102;-84
2023/02/20 03:17:47;;;;;;;5.07;2.92;;;11.30;88.30;;;;;;4979131;28;20034;-84
2023/02/20 03:20:17;;;;;;;5.85;3.50;;;11.30;88.30;;;;;;4963063;28;20026;-83
2023/02/20 03:22:57;;;;;;;4.90;2.95;;;11.30;88.30;;;;;;4981093;28;20039;-84
2023/02/20 03:25:29;;;;;;;5.32;3.00;;;11.30;88.30;;;;;;4957511;28;20034;-83
2023/02/20 03:27:58;;;;;;;5.35;3.35;;;11.40;88.40;;;;;;4961795;28;20142;-84
2023/02/20 03:30:48;;;;;;;5.65;3.40;;;11.30;88.30;;;;;;4962978;28;20066;-84
2023/02/20 03:44:43;;;;;;;5.82;3.33;;;11.30;88.30;;;;;;4979287;28;20122;-84
2023/02/20 03:47:13;;;;;;;5.50;3.00;;;11.30;88.30;;;;;;4960745;28;20402;-83
2023/02/20 03:49:41;;;;;;;5.78;3.40;;;11.30;88.30;;;;;;4960890;28;20034;-83
2023/02/20 03:52:07;;;;;;;5.72;3.35;;;11.40;88.40;;;;;;4958465;28;20033;-83
2023/02/20 03:54:35;;;;;;;6.80;3.80;;;11.30;88.40;;;;;;4975965;28;20467;-84
2023/02/20 03:57:11;;;;;;;6.20;3.78;;;11.30;88.30;;;;;;4975222;28;20817;-82
2023/02/20 03:59:40;;;;;;;5.95;3.40;;;11.30;88.40;;;;;;4974860;28;20059;-83
2023/02/20 04:02:12;;;;;;;5.78;3.47;;;11.30;88.40;;;;;;4957414;28;20027;-84
2023/02/20 04:04:46;;;;;;;5.93;3.50;;;11.30;88.40;;;;;;4957801;28;20035;-83
2023/02/20 04:07:19;;;;;;;5.68;3.40;;;11.30;88.40;;;;;;4974218;28;20155;-84
2023/02/20 04:09:46;;;;;;;6.25;3.80;;;11.30;88.40;;;;;;4957801;28;20034;-84
2023/02/20 04:12:19;;;;;;;5.47;3.28;;;11.40;88.50;;;;;;4957576;28;20030;-84
2023/02/20 04:14:46;;;;;;;5.97;3.63;;;11.30;88.40;;;;;;4958969;28;20027;-84
2023/02/20 04:17:18;;;;;;;6.13;3.50;;;11.30;88.40;;;;;;4959025;28;20475;-84
2023/02/20 04:19:47;;;;;;;6.20;3.70;;;11.30;88.30;;;;;;4955646;28;20026;-81
2023/02/20 04:22:19;;;;;;;6.35;3.47;;;11.30;88.30;;;;;;4954806;28;20027;-83
2023/02/20 04:25:20;;;;;;;5.97;3.58;;;11.30;88.40;;;;;;4971900;28;20031;-85
2023/02/20 04:27:45;;;;;;;6.47;3.72;;;11.40;88.50;;;;;;4955806;28;20038;-80
2023/02/20 04:30:12;;;;;;;6.05;3.60;;;11.30;88.40;;;;;;4954897;28;20027;-84
2023/02/20 04:32:37;;;;;;;6.22;3.45;;;11.30;88.50;;;;;;4954748;28;20037;-84
2023/02/20 04:35:03;;;;;;;6.47;3.67;;;11.30;88.50;;;;;;4954250;28;20026;-82
2023/02/20 04:37:29;;;;;;;6.47;3.55;;;11.30;88.40;;;;;;4954017;28;20121;-84
2023/02/20 04:39:54;;;;;;;6.20;3.70;;;11.30;88.40;;;;;;4963974;28;20031;-84
2023/02/20 04:42:20;;;;;;;5.90;3.45;;;11.30;88.50;;;;;;4978968;28;20114;-87
2023/02/20 04:44:45;;;;;;;6.38;3.60;;;11.30;88.40;;;;;;4993485;28;20121;-83
2023/02/20 04:47:15;;;;;;;6.60;3.90;;;11.30;88.40;;;;;;4986789;28;20121;-83
2023/02/20 04:49:41;;;;;;;6.47;3.65;;;11.30;88.40;;;;;;4975085;28;20023;-82
2023/02/20 04:52:06;;;;;;;6.60;4.07;;;11.40;88.50;;;;;;4975559;28;20057;-83
2023/02/20 04:54:32;;;;;;;7.30;4.15;;;11.30;88.40;;;;;;4990768;28;21985;-84
2023/02/20 04:56:57;;;;;;;6.60;3.97;;;11.30;88.40;;;;;;4972142;28;20057;-81
2023/02/20 04:59:24;;;;;;;6.30;3.55;;;11.30;88.40;;;;;;4972664;28;20022;-80
2023/02/20 05:01:50;;;;;;;6.63;3.78;;;11.30;88.40;;;;;;4973066;28;20031;-79
2023/02/20 05:04:18;;;;;;;5.93;3.50;;;11.30;88.40;;;;;;4973073;28;20069;-80
2023/02/20 05:06:50;;;;;;;6.43;3.70;;;11.30;88.40;;;;;;4990626;28;20030;-81
2023/02/20 05:09:16;;;;;;;6.50;3.90;;;11.30;88.50;;;;;;4973448;28;20798;-79
2023/02/20 05:11:42;;;;;;;6.72;3.80;;;11.30;88.40;;;;;;4973365;28;20034;-83
2023/02/20 05:14:08;;;;;;;6.05;3.63;;;11.30;88.50;;;;;;4973590;28;20124;-81
2023/02/20 05:16:35;;;;;;;7.13;3.97;;;11.30;88.40;;;;;;4977430;28;20022;-82
2023/02/20 05:19:01;;;;;;;6.80;3.85;;;11.20;88.40;;;;;;4998638;28;20518;-85
2023/02/20 05:24:12;;;;;;;6.80;3.85;;;11.30;88.50;;;;;;5011911;28;20112;-85
2023/02/20 05:26:38;;;;;;;6.75;3.65;;;11.30;88.50;;;;;;4989124;28;20045;-85
2023/02/20 05:29:04;;;;;;;6.25;3.70;;;11.30;88.50;;;;;;4985175;28;20026;-83
2023/02/20 05:31:29;;;;;;;6.43;3.63;;;11.30;88.40;;;;;;4995020;28;20157;-86
2023/02/20 05:33:55;;;;;;;7.15;4.15;;;11.30;88.50;;;;;;5005093;28;20026;-85
2023/02/20 05:36:20;;;;;;;6.75;3.85;;;11.30;88.40;;;;;;4994176;28;20063;-86
2023/02/20 05:38:48;;;;;;;6.60;3.47;;;11.30;88.40;;;;;;4998576;28;20030;-86
2023/02/20 05:41:17;;;;;;;6.75;4.18;;;11.30;88.50;;;;;;5000274;28;20030;-86
2023/02/20 05:43:43;;;;;;;7.05;3.70;;;11.30;88.50;;;;;;5008758;28;20025;-88
2023/02/20 05:46:08;;;;;;;7.18;4.03;;;11.30;88.60;;;;;;5007927;28;20035;-85
2023/02/20 05:48:34;;;;;;;6.28;3.72;;;11.30;88.50;;;;;;5024718;28;20486;-85
2023/02/20 05:50:59;;;;;;;7.63;3.97;;;11.30;88.50;;;;;;5005004;28;20040;-83
2023/02/20 05:53:30;;;;;;;6.50;3.92;;;11.30;88.50;;;;;;4997537;28;20036;-82
2023/02/20 05:55:55;;;;;;;6.70;3.97;;;11.30;88.50;;;;;;4999267;28;20022;-83
2023/02/20 05:58:21;;;;;;;6.93;4.15;;;11.30;88.50;;;;;;5021889;28;20144;-84
2023/02/20 06:00:47;;;;;;;7.28;4.30;;;11.30;88.50;;;;;;5022927;28;20032;-82
2023/02/20 06:03:13;;;;;;;6.88;4.10;;;11.30;88.50;;;;;;5002207;28;20030;-84
2023/02/20 06:05:39;;;;;;;7.22;3.80;;;11.30;88.40;;;;;;5002306;28;20032;-84
2023/02/20 06:08:05;;;;;;;6.97;4.28;;;11.30;88.50;;;;;;5002582;28;20036;-84
2023/02/20 06:10:31;;;;;;;6.40;4.10;;;11.30;88.40;;;;;;5006799;28;20038;-87
2023/02/20 06:12:57;;;;;;;7.03;4.03;;;11.30;88.40;;;;;;5005296;28;20034;-86
2023/02/20 06:15:22;;;;;;;7.20;4.50;;;11.30;88.40;;;;;;5007185;28;20041;-85
2023/02/20 06:17:48;;;;;;;6.90;4.43;;;11.30;88.40;;;;;;5004162;28;20760;-86
2023/02/20 06:20:14;;;;;;;7.13;4.35;;;11.30;88.40;;;;;;5006215;28;20018;-87
2023/02/20 06:22:39;;;;;;;7.90;4.63;;;11.30;88.90;;;;;;5008577;28;20026;-87
2023/02/20 06:25:05;;;;;;;6.82;4.00;;;11.30;88.30;;;;;;5003099;28;20026;-87
2023/02/20 06:27:31;;;;;;;7.78;4.45;;;11.30;88.40;;;;;;5004502;28;20029;-86
2023/02/20 06:29:56;;;;;;;9.10;5.32;;;11.30;88.30;;;;;;5000581;28;20030;-85
2023/02/20 06:32:22;;;;;;;9.48;5.35;;;11.30;88.40;;;;;;4994970;28;20041;-84
2023/02/20 06:34:47;;;;;;;10.60;5.60;;;11.30;88.20;;;;;;5000719;28;20121;-86
2023/02/20 06:37:13;;;;;;;8.18;5.00;;;11.30;88.20;;;;;;5021977;28;20050;-87
2023/02/20 06:39:38;;;;;;;9.48;5.30;;;11.30;88.20;;;;;;5024768;28;20026;-87
2023/02/20 06:42:05;;;;;;;8.45;5.15;;;11.30;88.20;;;;;;5002486;28;20062;-83
2023/02/20 06:44:32;;;;;;;8.70;5.30;;;11.30;88.30;;;;;;5003833;28;20026;-85
2023/02/20 06:46:58;;;;;;;8.40;5.40;;;11.30;88.30;;;;;;5002831;28;20033;-84
2023/02/20 06:49:23;;;;;;;8.30;5.00;;;11.30;88.30;;;;;;5013144;28;20021;-84
2023/02/20 06:51:52;;;;;;;7.85;5.07;;;11.30;88.30;;;;;;5000712;28;20108;-85
2023/02/20 06:54:20;;;;;;;8.00;5.38;;;11.30;88.40;;;;;;5018270;28;20028;-85
2023/02/20 06:56:46;;;;;;;9.98;6.07;;;11.30;88.40;;;;;;4995347;28;20132;-85
2023/02/20 06:59:13;;;;;;;8.40;5.85;;;11.30;88.40;;;;;;5002137;28;20053;-85
2023/02/20 07:01:41;;;;;;;8.40;5.55;;;11.30;88.40;;;;;;5003217;28;20057;-85
2023/02/20 07:04:18;;;;;;;8.52;5.85;;;11.30;88.40;;;;;;5002200;28;20041;-85
2023/02/20 07:06:43;;;;;;;8.25;5.35;;;11.30;88.40;;;;;;5000890;28;20022;-85
2023/02/20 07:09:09;;;;;;;10.00;5.78;;;11.30;88.40;;;;;;5019295;28;20080;-85
2023/02/20 07:11:35;;;;;;;8.23;5.43;;;11.30;88.40;;;;;;4999450;28;20033;-85
2023/02/20 07:14:00;;;;;;;8.18;5.30;;;11.30;88.40;;;;;;4995490;28;20021;-85
2023/02/20 07:16:26;;;;;;;9.25;5.97;;;11.40;88.50;;;;;;4995860;28;20033;-84
2023/02/20 07:18:51;;;;;;;8.95;6.00;;;11.30;88.40;;;;;;5016780;28;20375;-85
2023/02/20 07:21:17;;;;;;;9.30;5.90;;;11.30;88.40;;;;;;4999913;28;20018;-85
2023/02/20 07:23:44;;;;;;;9.43;6.15;;;11.30;88.40;;;;;;4999674;28;20141;-85
2023/02/20 07:26:21;;;;;;;9.60;5.93;;;11.30;88.40;;;;;;4998652;28;20026;-84
2023/02/20 07:28:47;;;;;;;9.82;6.20;;;11.30;88.40;;;;;;4997626;28;20034;-84
2023/02/20 07:31:13;;;;;;;9.07;6.30;;;11.30;88.40;;;;;;4995160;28;20030;-85
2023/02/20 07:33:38;;;;;;;9.07;6.10;;;11.30;88.40;;;;;;4995870;28;20026;-85
2023/02/20 07:36:04;;;;;;;8.82;6.03;;;11.30;88.40;;;;;;4995197;28;20121;-85
2023/02/20 07:38:30;;;;;;;9.88;6.55;;;11.30;88.40;;;;;;5013316;28;20022;-85
2023/02/20 07:40:55;;;;;;;8.32;5.78;;;11.30;88.40;;;;;;4995240;28;20022;-84
2023/02/20 07:43:21;;;;;;;8.95;6.13;;;11.30;88.40;;;;;;4995742;28;20109;-84
2023/02/20 07:45:46;;;;;;;8.23;5.85;;;11.30;88.40;;;;;;4995524;28;20030;-84
2023/02/20 07:48:12;;;;;;;7.95;5.60;;;11.30;88.40;;;;;;4994968;28;20076;-85
2023/02/20 07:50:37;;;;;;;9.23;6.22;;;11.30;88.40;;;;;;5014546;28;20076;-85
2023/02/20 07:53:03;;;;;;;8.50;5.82;;;11.30;88.40;;;;;;4997003;28;20065;-85
2023/02/20 07:55:28;;;;;;;9.10;6.35;;;11.30;88.40;;;;;;5015547;28;20099;-84
2023/02/20 07:57:57;;;;;;;9.30;6.10;;;11.30;88.40;;;;;;4996392;28;20065;-85
2023/02/20 08:00:25;;;;;;;8.85;6.00;;;11.30;88.50;;;;;;4996122;28;20130;-84
2023/02/20 08:02:51;;;;;;;9.20;6.28;;;11.30;88.50;;;;;;4994787;28;20241;-84
2023/02/20 08:05:16;;;;;;;9.40;6.10;;;11.30;88.40;;;;;;4994044;28;20176;-85
2023/02/20 08:07:47;;;;;;;8.40;5.95;;;11.30;88.40;;;;;;5012637;28;20498;-85
2023/02/20 08:10:14;;;;;;;8.73;6.05;;;11.30;88.40;;;;;;5012341;28;20034;-85
2023/02/20 08:12:40;;;;;;;8.65;6.20;;;11.30;88.40;;;;;;5012054;28;20501;-84
2023/02/20 08:15:05;;;;;;;8.77;6.20;;;11.30;88.50;;;;;;4994217;28;20037;-84
2023/02/20 08:17:31;;;;;;;9.10;6.03;;;11.30;88.40;;;;;;5012470;28;20026;-84
2023/02/20 08:19:56;;;;;;;8.52;5.72;;;11.30;88.40;;;;;;4994601;28;20113;-84
2023/02/20 08:22:22;;;;;;;8.75;5.75;;;11.30;88.40;;;;;;5012179;28;20040;-84
2023/02/20 08:24:47;;;;;;;8.80;5.82;;;11.30;88.40;;;;;;5012131;28;20033;-84
2023/02/20 08:27:13;;;;;;;8.80;6.03;;;11.20;88.40;;;;;;4994215;28;20033;-85
2023/02/20 08:29:38;;;;;;;9.15;5.88;;;11.30;88.40;;;;;;5011915;28;20026;-85
2023/02/20 08:32:04;;;;;;;9.30;6.07;;;11.30;88.40;;;;;;4994529;28;20482;-85
2023/02/20 08:34:29;;;;;;;9.55;5.88;;;11.30;88.40;;;;;;4994110;28;20033;-85
2023/02/20 08:36:54;;;;;;;8.68;5.60;;;11.30;88.40;;;;;;5011692;28;20025;-84
2023/02/20 08:39:20;;;;;;;9.07;6.20;;;11.30;88.40;;;;;;4994256;28;20509;-84
2023/02/20 08:41:46;;;;;;;8.52;6.00;;;11.30;88.30;;;;;;4994165;28;20034;-84
2023/02/20 08:44:13;;;;;;;8.38;5.68;;;11.30;88.30;;;;;;4993933;28;20026;-84
2023/02/20 08:46:48;;;;;;;9.30;6.38;;;11.40;88.40;;;;;;4993854;28;20038;-84
2023/02/20 08:49:16;;;;;;;8.90;5.72;;;11.30;88.40;;;;;;4993980;28;20481;-84
2023/02/20 08:51:45;;;;;;;8.85;6.05;;;11.30;88.40;;;;;;5004821;28;20037;-85
2023/02/20 08:54:11;;;;;;;8.02;5.65;;;11.30;88.40;;;;;;5007421;28;20029;-85
2023/02/20 08:56:37;;;;;;;9.30;6.15;;;11.30;88.90;;;;;;5005553;28;20032;-85
2023/02/20 08:59:02;;;;;;;8.82;6.00;;;11.30;88.30;;;;;;5005779;28;20090;-85
2023/02/20 09:01:28;;;;;;;8.50;5.88;;;11.30;88.40;;;;;;5005706;28;20094;-85
2023/02/20 09:03:54;;;;;;;8.70;5.88;;;11.30;88.30;;;;;;5023345;28;20038;-85
2023/02/20 09:06:20;;;;;;;8.93;5.97;;;11.30;88.40;;;;;;5003799;28;20085;-85
2023/02/20 09:08:45;;;;;;;8.60;6.13;;;11.30;88.40;;;;;;5021899;28;20065;-85
2023/02/20 09:11:11;;;;;;;9.00;6.05;;;11.30;88.30;;;;;;5004326;28;20550;-85
2023/02/20 09:13:44;;;;;;;9.15;5.97;;;11.30;88.40;;;;;;5004051;28;20030;-85
2023/02/20 09:16:11;;;;;;;8.63;6.05;;;11.30;88.30;;;;;;5005390;28;20022;-85
2023/02/20 09:18:36;;;;;;;8.70;5.88;;;11.30;88.30;;;;;;5007660;28;20033;-85
2023/02/20 09:21:02;;;;;;;9.02;5.60;;;11.30;88.30;;;;;;5001107;28;20033;-85
2023/02/20 09:23:27;;;;;;;8.18;5.97;;;11.30;88.40;;;;;;5016729;28;20026;-84
2023/02/20 09:25:54;;;;;;;8.73;6.03;;;11.40;88.40;;;;;;4998879;28;20058;-84
2023/02/20 09:28:19;;;;;;;9.10;6.45;;;11.30;88.30;;;;;;5005437;28;20556;-84
2023/02/20 09:30:45;;;;;;;9.05;6.20;;;11.30;88.30;;;;;;5005628;28;20029;-85
2023/02/20 09:33:10;;;;;;;8.20;5.78;;;11.30;88.30;;;;;;5004884;28;20155;-84
2023/02/20 09:35:36;;;;;;;8.65;5.85;;;11.30;88.30;;;;;;5004239;28;20022;-85
2023/02/20 09:38:02;;;;;;;8.23;5.55;;;11.30;88.30;;;;;;5003825;28;20501;-85
2023/02/20 09:40:29;;;;;;;9.25;5.95;;;11.30;88.30;;;;;;5022325;28;20026;-84
2023/02/20 09:43:24;;;;;;;9.00;6.03;;;11.30;88.30;;;;;;5008820;28;20081;-85
2023/02/20 09:45:58;;;;;;;9.50;6.10;;;11.30;88.30;;;;;;5009519;28;20025;-85
2023/02/20 09:48:59;;;;;;;9.73;6.78;;;11.30;88.30;;;;;;5009294;28;20033;-85
2023/02/20 09:51:32;;;;;;;9.23;6.20;;;11.40;88.30;;;;;;4994339;28;20034;-84
2023/02/20 09:54:04;;;;;;;9.10;6.20;;;11.30;88.30;;;;;;5001875;28;20513;-85
2023/02/20 09:56:34;;;;;;;9.27;6.35;;;11.40;88.30;;;;;;5007922;28;20083;-85
2023/02/20 09:59:11;;;;;;;8.98;5.85;;;11.40;88.20;;;;;;5007549;28;20386;-85
2023/02/20 10:01:42;;;;;;;9.50;6.03;;;11.30;88.20;;;;;;5008305;28;20034;-85
2023/02/20 10:04:16;;;;;;;8.75;6.22;;;11.30;88.20;;;;;;5024544;28;20026;-85
2023/02/20 10:06:43;;;;;;;9.02;6.28;;;11.30;88.10;;;;;;5024531;28;20086;-85
2023/02/20 10:09:14;;;;;;;8.48;6.15;;;11.30;88.20;;;;;;5006439;28;20124;-85
2023/02/20 10:12:04;;;;;;;9.07;6.28;;;11.30;88.20;;;;;;5005519;28;20508;-85
2023/02/20 10:14:35;;;;;;;9.02;6.40;;;11.30;88.20;;;;;;5005249;28;20101;-84
2023/02/20 10:17:33;;;;;;;9.40;6.45;;;11.40;88.20;;;;;;5005167;28;20045;-85
2023/02/20 10:20:10;;;;;;;9.70;6.60;;;11.30;88.10;;;;;;5022117;28;20025;-85
2023/02/20 10:22:57;;;;;;;9.95;7.03;;;11.30;88.10;;;;;;4998747;28;20026;-84
2023/02/20 10:25:32;;;;;;;9.80;6.57;;;11.30;88.10;;;;;;4999925;28;20057;-85
2023/02/20 10:28:09;;;;;;;9.13;6.13;;;11.30;88.10;;;;;;5001866;28;20064;-85
2023/02/20 10:30:53;;;;;;;10.20;6.90;;;11.30;88.10;;;;;;5020969;28;20076;-85
2023/02/20 10:33:49;;;;;;;9.50;6.63;;;11.30;88.10;;;;;;5020589;28;20068;-85
2023/02/20 10:36:21;;;;;;;9.13;6.43;;;11.30;88.10;;;;;;5002774;28;20034;-84
2023/02/20 10:39:09;;;;;;;9.05;6.53;;;11.30;88.10;;;;;;5001635;28;20159;-85
2023/02/20 10:41:53;;;;;;;9.00;6.25;;;11.30;88.10;;;;;;5020199;28;20037;-85
2023/02/20 10:44:28;;;;;;;9.18;6.25;;;11.30;88.10;;;;;;5013908;28;20207;-84
2023/02/20 10:47:09;;;;;;;9.55;6.93;;;11.40;88.10;;;;;;4996651;28;20033;-84
2023/02/20 10:49:42;;;;;;;10.45;6.82;;;11.30;88.10;;;;;;5016694;28;20054;-84
2023/02/20 10:52:13;;;;;;;9.93;6.80;;;11.30;88.10;;;;;;5018194;28;20041;-84
2023/02/20 10:54:47;;;;;;;9.73;6.97;;;11.40;88.20;;;;;;5000581;28;20022;-85
2023/02/20 10:57:22;;;;;;;10.02;7.20;;;11.30;88.20;;;;;;5014365;28;20092;-84
2023/02/20 11:00:01;;;;;;;9.63;6.75;;;11.30;88.10;;;;;;4996754;28;20029;-84
2023/02/20 11:02:33;;;;;;;10.80;7.30;;;11.30;88.20;;;;;;4996515;28;20026;-85
2023/02/20 11:05:12;;;;;;;9.75;7.40;;;11.30;88.10;;;;;;5000196;28;20025;-85
2023/02/20 11:07:38;;;;;;;9.35;7.00;;;11.30;88.10;;;;;;5018326;28;20026;-85
2023/02/20 11:10:04;;;;;;;10.85;7.45;;;11.30;88.10;;;;;;4997880;28;20032;-84
2023/02/20 11:12:33;;;;;;;10.85;7.20;;;11.30;88.10;;;;;;4995554;28;20026;-85
2023/02/20 11:15:05;;;;;;;10.18;7.22;;;11.30;88.10;;;;;;4996436;28;20026;-84
2023/02/20 11:17:31;;;;;;;;;;;11.30;88.10;;;;;;4999158;28;20128;-85
2023/02/20 11:20:01;;;;;;;10.35;6.95;;;11.30;88.10;;;;;;5017382;28;20028;-85
2023/02/20 11:22:48;;;;;;;10.18;7.30;;;11.30;88.10;;;;;;4998213;28;20026;-84
2023/02/20 11:25:18;;;;;;;10.02;7.70;;;11.30;88.10;;;;;;4998021;28;20030;-84
2023/02/20 11:27:53;;;;;;;10.93;7.65;;;11.30;88.10;;;;;;4997440;28;20032;-84
2023/02/20 11:30:30;;;;;;;9.43;6.90;;;11.30;88.10;;;;;;4995116;28;20057;-84
2023/02/20 11:33:17;;;;;;;10.10;7.07;;;11.30;88.10;;;;;;5012844;28;20026;-84
2023/02/20 11:35:45;;;;;;;9.43;7.00;;;11.30;88.10;;;;;;5014289;28;20036;-85
2023/02/20 11:38:16;;;;;;;10.85;7.65;;;11.30;88.10;;;;;;4996581;28;20029;-84
2023/02/20 11:40:42;;;;;;;10.98;7.50;;;11.30;88.10;;;;;;4995160;28;20040;-84
2023/02/20 11:43:19;;;;;;;10.82;7.35;;;11.30;88.10;;;;;;4995108;28;20022;-84
2023/02/20 11:45:45;;;;;;;9.57;7.05;;;11.30;88.10;;;;;;4995010;28;20036;-84
2023/02/20 11:48:13;;;;;;;10.00;7.38;;;11.30;88.10;;;;;;5012787;28;20030;-85
2023/02/20 11:50:51;;;;;;;11.75;7.35;;;11.30;88.10;;;;;;4995171;28;20044;-84
2023/02/20 11:53:21;;;;;;;10.15;7.65;;;11.30;88.10;;;;;;4994650;28;20122;-84
2023/02/20 11:55:48;;;;;;;9.98;7.45;;;11.30;88.10;;;;;;5012734;28;20485;-83
2023/02/20 11:58:25;;;;;;;9.80;7.35;;;11.30;88.10;;;;;;4994988;28;20410;-84
2023/02/20 12:00:53;;;;;;;9.70;7.60;;;11.30;88.00;;;;;;4994829;28;20059;-84
2023/02/20 12:03:31;;;;;;;9.63;7.15;;;11.30;88.00;;;;;;4994602;28;20030;-84
2023/02/20 12:05:58;;;;;;;11.23;7.32;;;11.30;88.00;;;;;;4994578;28;20030;-84
2023/02/20 12:08:36;;;;;;;10.40;7.45;;;11.30;88.10;;;;;;4995071;28;20116;-84
2023/02/20 12:11:15;;;;;;;10.48;7.35;;;11.30;88.00;;;;;;5012045;28;20487;-84
2023/02/20 12:13:43;;;;;;;10.63;7.28;;;11.30;88.00;;;;;;5012253;28;20109;-84
2023/02/20 12:16:11;;;;;;;9.82;7.30;;;11.30;88.00;;;;;;4994311;28;20116;-84
2023/02/20 12:19:00;;;;;;;10.32;7.57;;;11.30;88.00;;;;;;5012790;28;20573;-84
2023/02/20 12:21:30;;;;;;;;;;;11.30;88.10;;;;;;4978877;28;20046;-84
2023/02/20 12:24:24;;;;;;;10.43;7.43;;;11.30;88.00;;;;;;4994653;28;19916;-84
2023/02/20 12:26:59;;;;;;;10.15;7.60;;;11.20;88.00;;;;;;5003502;28;20025;-85
2023/02/20 12:29:40;;;;;;;10.23;7.13;;;11.30;88.00;;;;;;5007163;28;20049;-85
2023/02/20 12:32:29;;;;;;;10.30;7.35;;;11.30;88.00;;;;;;5007185;28;20167;-84
2023/02/20 12:35:08;;;;;;;10.75;7.68;;;11.30;88.00;;;;;;5006218;28;20553;-85
2023/02/20 12:38:08;;;;;;;10.27;7.30;;;11.30;88.00;;;;;;5005580;28;20093;-85
2023/02/20 12:40:57;;;;;;;9.90;7.03;;;11.30;88.00;;;;;;5024043;28;20673;-85
2023/02/20 12:43:53;;;;;;;9.90;6.90;;;11.30;88.00;;;;;;5006045;28;20026;-85
2023/02/20 12:47:02;;;;;;;9.35;6.82;;;11.30;88.00;;;;;;5004082;28;20168;-85
2023/02/20 12:50:01;;;;;;;10.77;7.00;;;11.30;88.10;;;;;;5021124;28;20036;-85
2023/02/20 12:52:46;;;;;;;10.70;7.65;;;11.30;88.10;;;;;;5022786;28;20026;-85
2023/02/20 12:55:49;;;;;;;9.50;7.13;;;11.30;88.10;;;;;;5018965;28;20062;-85
2023/02/20 12:58:28;;;;;;;10.93;7.28;;;11.30;88.10;;;;;;4996574;28;20018;-84
2023/02/20 13:00:59;;;;;;;9.50;6.97;;;11.30;88.10;;;;;;4998605;28;20097;-85
2023/02/20 13:04:00;;;;;;;10.33;7.30;;;11.30;88.20;;;;;;5001778;28;20022;-85
2023/02/20 13:06:34;;;;;;;10.63;7.72;;;11.30;88.20;;;;;;4996204;28;20276;-85
2023/02/20 13:09:13;;;;;;;10.02;6.85;;;11.30;88.20;;;;;;5001505;28;20038;-85
2023/02/20 13:11:45;;;;;;;10.18;7.20;;;11.30;88.20;;;;;;5015398;28;20052;-84
2023/02/20 13:14:13;;;;;;;10.07;6.95;;;11.30;88.20;;;;;;4994487;28;20025;-85
2023/02/20 13:16:49;;;;;;;9.30;6.78;;;11.30;88.10;;;;;;4993447;28;20037;-84
2023/02/20 13:19:20;;;;;;;10.35;7.05;;;11.30;88.20;;;;;;5001312;28;20026;-85
2023/02/20 13:21:46;;;;;;;10.20;7.30;;;11.30;88.20;;;;;;5025389;28;20478;-85